Time;durP1;ratioP1;P1;durP2;ratioP2;P2;SDS_P1;SDS_P2;PMS_P1;PMS_P2;Temp;Humidity;BMP_temperature;BMP_pressure;BME280_temperature;BME280_humidity;BME280_pressure;Samples;Min_cycle;Max_cycle;Signal;HPM_P1;HPM_P2
2022/10/13 00:01:19;;;;;;;18.45;7.30;;;10.00;98.80;;;;;;5072127;28;20590;-73
2022/10/13 00:03:45;;;;;;;10.23;5.45;;;10.00;98.70;;;;;;5072290;28;20442;-73
2022/10/13 00:06:17;;;;;;;14.75;6.13;;;10.00;98.80;;;;;;5071485;28;20062;-73
2022/10/13 00:08:44;;;;;;;17.13;6.68;;;10.10;98.60;;;;;;5072700;28;20136;-72
2022/10/13 00:11:17;;;;;;;11.02;5.45;;;10.10;98.80;;;;;;5072114;28;20036;-73
2022/10/13 00:13:42;;;;;;;15.20;6.03;;;10.10;98.60;;;;;;5083163;28;20040;-72
2022/10/13 00:16:08;;;;;;;12.50;6.93;;;10.10;98.60;;;;;;5051928;28;20062;-72
2022/10/13 00:18:35;;;;;;;12.02;5.90;;;10.10;98.70;;;;;;5072314;28;20097;-72
2022/10/13 00:21:04;;;;;;;19.65;6.88;;;10.00;98.70;;;;;;5068585;28;20429;-72
2022/10/13 00:23:33;;;;;;;13.35;5.93;;;10.00;98.70;;;;;;5076645;28;20078;-72
2022/10/13 00:26:02;;;;;;;13.05;6.20;;;10.10;98.70;;;;;;5035325;28;20131;-72
2022/10/13 00:28:28;;;;;;;;;;;10.00;98.60;;;;;;5068872;28;20033;-71
2022/10/13 00:30:53;;;;;;;13.82;5.95;;;10.00;98.60;;;;;;5088567;28;19918;-72
2022/10/13 00:33:19;;;;;;;13.25;5.50;;;10.00;98.50;;;;;;5057431;28;20048;-72
2022/10/13 00:35:48;;;;;;;17.90;6.60;;;10.00;98.60;;;;;;5038130;28;20044;-72
2022/10/13 00:38:15;;;;;;;15.77;6.40;;;10.00;98.70;;;;;;5040052;28;20131;-72
2022/10/13 00:40:56;;;;;;;21.15;6.97;;;10.00;98.70;;;;;;5055853;28;20044;-72
2022/10/13 00:43:30;;;;;;;14.15;6.30;;;10.00;98.70;;;;;;5088849;28;20373;-72
2022/10/13 00:45:58;;;;;;;15.25;6.38;;;10.00;98.60;;;;;;5059497;28;20036;-72
2022/10/13 00:48:27;;;;;;;13.52;6.80;;;10.00;98.70;;;;;;5059135;28;20048;-73
2022/10/13 00:50:53;;;;;;;16.33;6.53;;;10.00;99.10;;;;;;5075565;28;20043;-72
2022/10/13 00:53:20;;;;;;;12.65;5.88;;;9.90;99.40;;;;;;5076417;28;20040;-72
2022/10/13 00:55:46;;;;;;;16.73;7.47;;;10.00;99.20;;;;;;5092240;28;20374;-72
2022/10/13 00:58:15;;;;;;;14.65;6.75;;;10.00;99.00;;;;;;5058007;28;20051;-73
2022/10/13 01:00:43;;;;;;;10.18;6.10;;;10.00;99.10;;;;;;5075303;28;20055;-72
2022/10/13 01:03:10;;;;;;;17.70;6.75;;;10.00;99.20;;;;;;5074705;28;20039;-72
2022/10/13 01:05:36;;;;;;;14.55;7.07;;;9.90;99.40;;;;;;5058669;28;20137;-73
2022/10/13 01:08:02;;;;;;;14.55;7.43;;;9.90;99.60;;;;;;5057638;28;20459;-73
2022/10/13 01:10:46;;;;;;;13.57;6.45;;;9.90;99.70;;;;;;5075115;28;20456;-72
2022/10/13 01:13:22;;;;;;;13.43;7.10;;;9.80;99.70;;;;;;5088429;28;20044;-73
2022/10/13 01:16:18;;;;;;;14.23;6.93;;;9.80;99.90;;;;;;5055202;28;20040;-72
2022/10/13 01:19:31;;;;;;;16.17;7.50;;;9.80;99.80;;;;;;5078196;28;20072;-72
2022/10/13 01:22:18;;;;;;;19.83;6.68;;;9.80;99.90;;;;;;5027388;28;20416;-72
2022/10/13 01:25:06;;;;;;;18.42;7.18;;;9.70;99.90;;;;;;5071583;28;20048;-72
2022/10/13 01:27:50;;;;;;;14.52;6.38;;;9.80;99.90;;;;;;5061685;28;20039;-72
2022/10/13 01:30:18;;;;;;;11.95;6.50;;;9.80;99.80;;;;;;5091762;28;20047;-72
2022/10/13 01:33:02;;;;;;;13.85;6.78;;;9.80;99.80;;;;;;5071138;28;20063;-72
2022/10/13 01:35:58;;;;;;;14.20;6.70;;;9.80;99.90;;;;;;5071663;28;20093;-72
2022/10/13 01:38:24;;;;;;;13.50;7.03;;;9.90;99.90;;;;;;5065628;28;20105;-72
2022/10/13 01:41:11;;;;;;;12.98;6.72;;;9.80;99.70;;;;;;5087061;28;20738;-71
2022/10/13 01:43:39;;;;;;;17.00;7.45;;;9.90;99.60;;;;;;5070962;28;20140;-72
2022/10/13 01:46:23;;;;;;;12.80;6.60;;;9.90;99.50;;;;;;5068561;28;20202;-72
2022/10/13 01:48:52;;;;;;;15.05;6.63;;;9.90;99.60;;;;;;5071392;28;20051;-72
2022/10/13 01:51:18;;;;;;;;;;;9.90;99.50;;;;;;5054346;28;20072;-72
2022/10/13 01:53:44;;;;;;;13.40;6.93;;;10.00;99.60;;;;;;5049627;28;19943;-72
2022/10/13 01:56:10;;;;;;;13.18;6.75;;;9.90;99.70;;;;;;5057465;28;20051;-72
2022/10/13 01:58:37;;;;;;;13.57;7.72;;;9.90;99.90;;;;;;5057761;28;20043;-72
2022/10/13 02:01:41;;;;;;;21.73;7.95;;;9.90;99.90;;;;;;5070754;28;20051;-71
2022/10/13 02:04:37;;;;;;;13.88;7.38;;;9.80;99.90;;;;;;5053338;28;20047;-72
2022/10/13 02:07:27;;;;;;;17.90;7.80;;;9.80;99.90;;;;;;5070063;28;20474;-71
2022/10/13 02:10:13;;;;;;;18.60;7.57;;;9.80;99.90;;;;;;5064023;28;20063;-72
2022/10/13 02:12:59;;;;;;;16.95;7.90;;;9.80;99.90;;;;;;5039783;28;20127;-72
2022/10/13 02:15:29;;;;;;;19.65;7.95;;;9.70;99.90;;;;;;5055521;28;20068;-73
2022/10/13 02:17:55;;;;;;;17.23;7.75;;;9.70;99.90;;;;;;5053587;28;20045;-72
2022/10/13 02:20:21;;;;;;;20.15;8.15;;;9.60;99.90;;;;;;5036895;28;20051;-72
2022/10/13 02:22:49;;;;;;;20.83;7.07;;;9.70;99.90;;;;;;5072131;28;20127;-72
2022/10/13 02:25:15;;;;;;;16.02;7.50;;;9.70;99.90;;;;;;5054318;28;20748;-73
2022/10/13 02:27:41;;;;;;;15.25;7.85;;;9.60;99.90;;;;;;5064926;28;20071;-72
2022/10/13 02:30:07;;;;;;;18.67;8.15;;;9.70;99.90;;;;;;5069959;28;20055;-72
2022/10/13 02:32:33;;;;;;;17.40;7.45;;;9.60;99.90;;;;;;5053452;28;20079;-73
2022/10/13 02:34:59;;;;;;;16.20;7.85;;;9.60;99.90;;;;;;5070090;28;20071;-72
2022/10/13 02:37:25;;;;;;;17.15;7.50;;;9.60;99.90;;;;;;5072840;28;20377;-74
2022/10/13 02:39:51;;;;;;;18.08;7.93;;;9.60;99.90;;;;;;5073318;28;20071;-72
2022/10/13 02:42:17;;;;;;;17.67;8.32;;;9.60;99.90;;;;;;5056487;28;20054;-73
2022/10/13 02:44:42;;;;;;;18.48;8.25;;;9.60;99.90;;;;;;5072968;28;20159;-72
2022/10/13 02:47:08;;;;;;;16.48;8.75;;;9.60;99.90;;;;;;5090878;28;20082;-72
2022/10/13 02:49:34;;;;;;;19.13;8.30;;;9.50;99.90;;;;;;5053412;28;20059;-72
2022/10/13 02:52:00;;;;;;;13.63;7.75;;;9.60;99.90;;;;;;5073280;28;20044;-72
2022/10/13 02:54:25;;;;;;;14.13;7.43;;;9.60;99.90;;;;;;5056276;28;20108;-72
2022/10/13 02:56:51;;;;;;;18.75;8.55;;;9.60;99.90;;;;;;5056738;28;20135;-72
2022/10/13 02:59:17;;;;;;;17.85;8.40;;;9.60;99.90;;;;;;5072296;28;20040;-73
2022/10/13 03:01:43;;;;;;;19.33;9.00;;;9.60;99.90;;;;;;5056101;28;20086;-73
2022/10/13 03:04:09;;;;;;;16.63;8.32;;;9.50;99.90;;;;;;5057125;28;20533;-73
2022/10/13 03:06:35;;;;;;;15.02;8.20;;;9.50;99.90;;;;;;5058795;28;20119;-73
2022/10/13 03:09:00;;;;;;;13.95;7.95;;;9.50;99.90;;;;;;5074804;28;20513;-73
2022/10/13 03:11:26;;;;;;;16.55;8.40;;;9.60;99.90;;;;;;5056463;28;20068;-73
2022/10/13 03:13:52;;;;;;;14.75;7.88;;;9.60;99.90;;;;;;5069836;28;20499;-72
2022/10/13 03:16:18;;;;;;;15.60;8.55;;;9.60;99.90;;;;;;5046361;28;20388;-73
2022/10/13 03:18:44;;;;;;;20.38;9.00;;;9.60;99.90;;;;;;5072111;28;20048;-73
2022/10/13 03:21:10;;;;;;;17.73;8.18;;;9.60;99.90;;;;;;5056062;28;20043;-73
2022/10/13 03:23:35;;;;;;;21.05;8.75;;;9.60;99.90;;;;;;5072816;28;20667;-73
2022/10/13 03:26:01;;;;;;;15.98;8.23;;;9.70;99.90;;;;;;5071634;28;20052;-72
2022/10/13 03:28:27;;;;;;;17.42;8.73;;;9.70;99.90;;;;;;5055660;28;20047;-72
2022/10/13 03:31:13;;;;;;;20.17;8.95;;;9.70;99.90;;;;;;5053694;28;20051;-72
2022/10/13 03:33:39;;;;;;;13.00;7.88;;;9.70;99.90;;;;;;5069444;28;20044;-72
2022/10/13 03:36:06;;;;;;;17.88;8.32;;;9.70;99.90;;;;;;5072060;28;20114;-72
2022/10/13 03:38:32;;;;;;;19.15;8.55;;;9.70;99.90;;;;;;5056123;28;20052;-72
2022/10/13 03:41:12;;;;;;;15.45;8.40;;;9.70;99.90;;;;;;5073194;28;20062;-72
2022/10/13 03:43:38;;;;;;;23.27;9.20;;;9.70;99.90;;;;;;5074143;28;20060;-72
2022/10/13 03:46:04;;;;;;;16.75;8.88;;;9.70;99.90;;;;;;5072003;28;20081;-72
2022/10/13 03:48:31;;;;;;;20.33;9.63;;;9.70;99.90;;;;;;5088972;28;20047;-72
2022/10/13 03:50:57;;;;;;;18.42;9.35;;;9.70;99.90;;;;;;5055815;28;20839;-72
2022/10/13 03:53:25;;;;;;;16.88;8.55;;;9.60;99.90;;;;;;5082763;28;20048;-72
2022/10/13 03:55:52;;;;;;;19.55;8.95;;;9.70;99.90;;;;;;5057822;28;20405;-72
2022/10/13 03:58:18;;;;;;;23.48;10.00;;;9.70;99.90;;;;;;5104041;28;20048;-72
2022/10/13 04:00:44;;;;;;;20.63;9.52;;;9.60;99.90;;;;;;5083122;28;20090;-71
2022/10/13 04:03:10;;;;;;;19.77;9.25;;;9.70;99.90;;;;;;5085606;28;20059;-72
2022/10/13 04:05:36;;;;;;;18.80;9.32;;;9.60;99.90;;;;;;5035571;28;20052;-72
2022/10/13 04:08:01;;;;;;;19.88;9.07;;;9.70;99.90;;;;;;5070656;28;20055;-72
2022/10/13 04:10:27;;;;;;;14.00;9.25;;;9.70;99.90;;;;;;5088873;28;20048;-72
2022/10/13 04:12:53;;;;;;;19.63;9.80;;;9.70;99.90;;;;;;5073828;28;20112;-73
2022/10/13 04:15:19;;;;;;;17.38;9.82;;;9.70;99.90;;;;;;5075966;28;20055;-73
2022/10/13 04:17:44;;;;;;;18.20;9.18;;;9.70;99.90;;;;;;5075899;28;20121;-73
2022/10/13 04:20:10;;;;;;;15.93;8.90;;;9.70;99.90;;;;;;5089372;28;20048;-72
2022/10/13 04:22:36;;;;;;;22.35;9.90;;;9.70;99.90;;;;;;5056016;28;20041;-73
2022/10/13 04:25:03;;;;;;;20.73;9.27;;;9.70;99.90;;;;;;5082339;28;20106;-73
2022/10/13 04:27:29;;;;;;;20.45;10.27;;;9.70;99.90;;;;;;5072926;28;20044;-72
2022/10/13 04:29:55;;;;;;;20.05;10.55;;;9.70;99.90;;;;;;5069931;28;20745;-72
2022/10/13 04:32:21;;;;;;;16.20;9.05;;;9.60;99.90;;;;;;5092197;28;20089;-71
2022/10/13 04:34:46;;;;;;;20.55;9.98;;;9.60;99.90;;;;;;5059063;28;20054;-72
2022/10/13 04:37:12;;;;;;;15.80;9.27;;;9.70;99.90;;;;;;5074793;28;20082;-71
2022/10/13 04:39:38;;;;;;;19.52;10.90;;;9.70;99.90;;;;;;5072132;28;20485;-71
2022/10/13 04:42:04;;;;;;;22.75;10.23;;;9.70;99.90;;;;;;5072217;28;20048;-72
2022/10/13 04:44:30;;;;;;;21.45;10.32;;;9.60;99.90;;;;;;5055433;28;20056;-71
2022/10/13 04:46:56;;;;;;;20.10;11.35;;;9.70;99.90;;;;;;5038506;28;20044;-72
2022/10/13 04:49:22;;;;;;;18.67;10.15;;;9.70;99.90;;;;;;5061398;28;20561;-72
2022/10/13 04:51:48;;;;;;;17.05;10.00;;;9.60;99.90;;;;;;5067114;28;20048;-72
2022/10/13 04:54:14;;;;;;;20.80;11.52;;;9.60;99.90;;;;;;5038331;28;20066;-71
2022/10/13 04:56:39;;;;;;;18.85;11.00;;;9.60;99.90;;;;;;5055444;28;20048;-72
2022/10/13 04:59:05;;;;;;;26.83;11.70;;;9.70;99.90;;;;;;5054390;28;20048;-71
2022/10/13 05:01:31;;;;;;;21.30;10.77;;;9.60;99.90;;;;;;5082106;28;20048;-72
2022/10/13 05:03:58;;;;;;;18.13;11.15;;;9.60;99.90;;;;;;5055512;28;20048;-72
2022/10/13 05:06:29;;;;;;;22.37;11.13;;;9.60;99.90;;;;;;5067490;28;20444;-72
2022/10/13 05:08:55;;;;;;;23.98;11.13;;;9.60;99.90;;;;;;5055729;28;20071;-72
2022/10/13 05:11:21;;;;;;;22.60;10.77;;;9.60;99.90;;;;;;5089470;28;20075;-72
2022/10/13 05:13:47;;;;;;;23.25;11.18;;;9.60;99.90;;;;;;5054981;28;20090;-72
2022/10/13 05:16:14;;;;;;;22.85;11.35;;;9.60;99.90;;;;;;5054845;28;20055;-72
2022/10/13 05:18:41;;;;;;;18.65;10.88;;;9.60;99.90;;;;;;5056747;28;20473;-71
2022/10/13 05:21:11;;;;;;;23.67;11.45;;;9.60;99.90;;;;;;5053907;28;20044;-72
2022/10/13 05:23:37;;;;;;;20.83;11.45;;;9.60;99.90;;;;;;5054998;28;20044;-72
2022/10/13 05:26:14;;;;;;;19.98;11.52;;;9.60;99.90;;;;;;5085619;28;20098;-71
2022/10/13 05:28:40;;;;;;;17.50;10.88;;;9.60;99.90;;;;;;5049557;28;20067;-72
2022/10/13 05:31:08;;;;;;;20.00;11.45;;;9.60;99.90;;;;;;5050251;28;20041;-72
2022/10/13 05:33:34;;;;;;;22.30;12.00;;;9.60;99.90;;;;;;5070453;28;20119;-72
2022/10/13 05:36:08;;;;;;;24.35;10.85;;;9.60;99.90;;;;;;5054295;28;20530;-72
2022/10/13 05:38:34;;;;;;;19.33;11.68;;;9.60;99.90;;;;;;5069124;28;20487;-72
2022/10/13 05:41:07;;;;;;;21.58;11.02;;;9.60;99.90;;;;;;5055130;28;20053;-71
2022/10/13 05:43:33;;;;;;;21.38;10.93;;;9.60;99.90;;;;;;5053294;28;20053;-72
2022/10/13 05:45:59;;;;;;;23.33;11.60;;;9.60;99.90;;;;;;5073605;28;20428;-72
2022/10/13 05:48:25;;;;;;;19.50;11.85;;;9.50;99.90;;;;;;5090835;28;20048;-71
2022/10/13 05:50:51;;;;;;;19.27;11.27;;;9.60;99.90;;;;;;5074005;28;20069;-71
2022/10/13 05:53:17;;;;;;;20.80;11.73;;;9.60;99.90;;;;;;5057878;28;20039;-71
2022/10/13 05:55:43;;;;;;;17.23;11.02;;;9.60;99.90;;;;;;5068734;28;20050;-66
2022/10/13 05:58:09;;;;;;;20.70;11.75;;;9.60;99.90;;;;;;5051911;28;20068;-66
2022/10/13 06:00:35;;;;;;;19.83;11.77;;;9.50;99.90;;;;;;5083876;28;20076;-68
2022/10/13 06:03:07;;;;;;;24.48;12.63;;;9.50;99.90;;;;;;5053398;28;20044;-68
2022/10/13 06:05:33;;;;;;;23.60;12.50;;;9.50;99.90;;;;;;5061993;28;20633;-68
2022/10/13 06:07:58;;;;;;;21.10;11.68;;;9.50;99.90;;;;;;5070458;28;20051;-68
2022/10/13 06:10:24;;;;;;;23.17;12.90;;;9.50;99.90;;;;;;5079764;28;20499;-68
2022/10/13 06:12:50;;;;;;;20.13;12.07;;;9.40;99.90;;;;;;5085786;28;20043;-69
2022/10/13 06:15:16;;;;;;;21.13;12.77;;;9.50;99.90;;;;;;5060214;28;20044;-68
2022/10/13 06:17:42;;;;;;;22.30;12.00;;;9.50;99.90;;;;;;5037582;28;20667;-67
2022/10/13 06:20:08;;;;;;;24.98;13.20;;;9.50;99.90;;;;;;5058664;28;20051;-67
2022/10/13 06:22:34;;;;;;;26.10;13.05;;;9.60;99.90;;;;;;5036901;28;20048;-67
2022/10/13 06:25:00;;;;;;;20.63;12.48;;;9.50;99.90;;;;;;5036900;28;20052;-68
2022/10/13 06:27:26;;;;;;;29.48;12.75;;;9.60;99.90;;;;;;5053121;28;20040;-67
2022/10/13 06:29:53;;;;;;;22.15;13.40;;;9.60;99.90;;;;;;5044687;28;20052;-67
2022/10/13 06:32:18;;;;;;;23.15;12.77;;;9.50;99.90;;;;;;5037017;28;20036;-68
2022/10/13 06:34:44;;;;;;;26.67;13.60;;;9.60;99.90;;;;;;5069959;28;20063;-68
2022/10/13 06:37:10;;;;;;;23.25;12.48;;;9.60;99.90;;;;;;5036758;28;20078;-68
2022/10/13 06:39:36;;;;;;;30.67;12.98;;;9.60;99.90;;;;;;5052055;28;20037;-68
2022/10/13 06:42:02;;;;;;;23.92;13.63;;;9.70;99.90;;;;;;5051694;28;20466;-68
2022/10/13 06:44:27;;;;;;;25.23;12.80;;;9.70;99.90;;;;;;5057442;28;20056;-68
2022/10/13 06:46:56;;;;;;;26.08;13.60;;;9.80;99.90;;;;;;5054248;28;20055;-68
2022/10/13 06:49:23;;;;;;;25.38;14.15;;;9.80;99.90;;;;;;5087771;28;20052;-69
2022/10/13 06:51:48;;;;;;;24.10;13.13;;;9.80;99.90;;;;;;5053894;28;20119;-68
2022/10/13 06:54:14;;;;;;;28.55;14.95;;;9.80;99.90;;;;;;5055105;28;20181;-68
2022/10/13 06:56:40;;;;;;;24.08;14.50;;;9.90;99.90;;;;;;5053307;28;20054;-68
2022/10/13 06:59:06;;;;;;;25.42;13.07;;;10.00;99.90;;;;;;5089309;28;20055;-68
2022/10/13 07:01:32;;;;;;;27.75;13.45;;;10.10;99.90;;;;;;5071604;28;20141;-68
2022/10/13 07:03:57;;;;;;;26.75;14.93;;;10.00;99.90;;;;;;5054694;28;20478;-68
2022/10/13 07:06:24;;;;;;;26.17;14.40;;;10.00;99.90;;;;;;5071265;28;20113;-68
2022/10/13 07:08:50;;;;;;;23.50;13.45;;;10.10;99.90;;;;;;5088983;28;20460;-68
2022/10/13 07:11:17;;;;;;;22.48;13.85;;;10.10;99.90;;;;;;5071666;28;20048;-69
2022/10/13 07:13:43;;;;;;;27.23;13.45;;;10.10;99.90;;;;;;5054772;28;20484;-68
2022/10/13 07:16:09;;;;;;;24.35;12.68;;;10.10;99.90;;;;;;5067959;28;20052;-68
2022/10/13 07:18:35;;;;;;;24.08;14.13;;;10.00;99.90;;;;;;5035070;28;20052;-69
2022/10/13 07:21:01;;;;;;;27.13;14.82;;;10.10;99.90;;;;;;5051499;28;20492;-68
2022/10/13 07:23:27;;;;;;;26.85;13.95;;;10.10;99.90;;;;;;5068969;28;20214;-68
2022/10/13 07:25:55;;;;;;;27.02;14.98;;;10.20;99.90;;;;;;5067706;28;20058;-68
2022/10/13 07:28:22;;;;;;;30.67;17.23;;;10.20;99.90;;;;;;5087705;28;20066;-68
2022/10/13 07:30:48;;;;;;;25.15;14.77;;;10.20;99.90;;;;;;5087531;28;20082;-68
2022/10/13 07:33:13;;;;;;;23.13;14.23;;;10.20;99.90;;;;;;5054774;28;20064;-68
2022/10/13 07:35:39;;;;;;;28.15;14.70;;;10.30;99.90;;;;;;5071727;28;20048;-68
2022/10/13 07:38:06;;;;;;;21.75;14.18;;;10.30;99.90;;;;;;5054741;28;20402;-68
2022/10/13 07:40:31;;;;;;;22.77;14.52;;;10.40;99.90;;;;;;5084272;28;20041;-68
2022/10/13 07:42:57;;;;;;;22.67;14.55;;;10.40;99.90;;;;;;5028161;28;20044;-68
2022/10/13 07:45:24;;;;;;;23.05;14.10;;;10.50;99.90;;;;;;5054165;28;20055;-69
2022/10/13 07:47:50;;;;;;;25.75;14.73;;;10.50;99.90;;;;;;5055002;28;20059;-69
2022/10/13 07:50:16;;;;;;;27.60;13.90;;;10.60;99.90;;;;;;5054025;28;20175;-69
2022/10/13 07:52:43;;;;;;;27.10;15.68;;;10.60;99.90;;;;;;5054835;28;20677;-69
2022/10/13 07:55:09;;;;;;;26.60;14.53;;;10.60;99.90;;;;;;5088712;28;20108;-69
2022/10/13 07:57:35;;;;;;;23.88;13.73;;;10.60;99.90;;;;;;5072127;28;20059;-68
2022/10/13 08:00:01;;;;;;;26.58;14.50;;;10.70;99.90;;;;;;5087909;28;20449;-71
2022/10/13 08:02:27;;;;;;;26.05;15.75;;;10.80;99.90;;;;;;5054185;28;20040;-69
2022/10/13 08:04:52;;;;;;;23.02;13.85;;;10.90;99.90;;;;;;5054959;28;20048;-68
2022/10/13 08:07:18;;;;;;;24.25;15.38;;;11.00;99.90;;;;;;5071229;28;20048;-68
2022/10/13 08:09:44;;;;;;;25.52;15.55;;;11.00;99.90;;;;;;5071192;28;20113;-68
2022/10/13 08:12:10;;;;;;;27.95;15.65;;;11.00;99.90;;;;;;5070232;28;20387;-69
2022/10/13 08:14:35;;;;;;;30.95;16.40;;;11.10;99.90;;;;;;5071420;28;20059;-69
2022/10/13 08:17:01;;;;;;;35.67;19.40;;;11.10;99.90;;;;;;5087780;28;20491;-69
2022/10/13 08:19:27;;;;;;;25.45;15.90;;;11.20;99.90;;;;;;5070051;28;20044;-69
2022/10/13 08:21:53;;;;;;;30.75;15.55;;;11.20;99.90;;;;;;5087688;28;20048;-68
2022/10/13 08:24:21;;;;;;;24.13;14.65;;;11.20;99.90;;;;;;5054313;28;20048;-68
2022/10/13 08:26:47;;;;;;;25.77;14.60;;;11.30;99.90;;;;;;5054927;28;20052;-69
2022/10/13 08:29:14;;;;;;;27.23;13.73;;;11.30;99.90;;;;;;5053412;28;20201;-69
2022/10/13 08:31:40;;;;;;;28.38;15.48;;;11.40;99.90;;;;;;5054088;28;20067;-69
2022/10/13 08:34:07;;;;;;;29.73;15.40;;;11.50;99.90;;;;;;5084423;28;20094;-69
2022/10/13 08:36:32;;;;;;;22.42;14.45;;;11.50;99.90;;;;;;5051361;28;20044;-69
2022/10/13 08:38:58;;;;;;;27.52;16.55;;;11.60;99.90;;;;;;5051803;28;20117;-69
2022/10/13 08:41:27;;;;;;;27.58;16.00;;;11.60;99.90;;;;;;5068258;28;20052;-68
2022/10/13 08:44:05;;;;;;;26.90;15.02;;;11.70;99.90;;;;;;5067483;28;20532;-68
2022/10/13 08:46:42;;;;;;;31.65;14.90;;;11.80;99.90;;;;;;5052426;28;20060;-68
2022/10/13 08:49:08;;;;;;;23.10;14.40;;;11.90;99.90;;;;;;5068172;28;20044;-68
2022/10/13 08:51:35;;;;;;;27.13;14.95;;;12.00;99.90;;;;;;5053481;28;20461;-68
2022/10/13 08:54:01;;;;;;;26.65;14.75;;;12.10;99.90;;;;;;5071002;28;20051;-68
2022/10/13 08:56:32;;;;;;;24.65;13.73;;;12.10;99.90;;;;;;5072606;28;20446;-69
2022/10/13 08:59:00;;;;;;;21.30;13.23;;;12.30;99.90;;;;;;5057178;28;20541;-68
2022/10/13 09:01:31;;;;;;;25.38;13.20;;;12.40;99.90;;;;;;5074726;28;20104;-68
2022/10/13 09:04:18;;;;;;;25.33;13.27;;;12.50;99.90;;;;;;5088917;28;20055;-69
2022/10/13 09:06:47;;;;;;;23.98;13.55;;;12.60;99.90;;;;;;5070861;28;20148;-69
2022/10/13 09:09:14;;;;;;;24.60;12.52;;;12.80;99.90;;;;;;5070668;28;20048;-69
2022/10/13 09:11:47;;;;;;;21.85;12.52;;;12.80;99.90;;;;;;5082754;28;20460;-69
2022/10/13 09:14:27;;;;;;;21.70;11.45;;;12.90;99.90;;;;;;5057395;28;20048;-70
2022/10/13 09:16:53;;;;;;;17.55;11.00;;;13.00;99.90;;;;;;5091079;28;20055;-69
2022/10/13 09:19:32;;;;;;;19.30;10.93;;;13.10;99.90;;;;;;5056501;28;20149;-69
2022/10/13 09:22:24;;;;;;;20.60;11.40;;;13.30;99.90;;;;;;5059647;28;20101;-69
2022/10/13 09:25:18;;;;;;;17.88;11.27;;;13.40;99.90;;;;;;5057545;28;20105;-68
2022/10/13 09:27:57;;;;;;;17.20;10.32;;;13.50;99.90;;;;;;5075738;28;20119;-69
2022/10/13 09:30:37;;;;;;;23.10;11.70;;;13.50;99.90;;;;;;5069906;28;20052;-69
2022/10/13 09:33:11;;;;;;;21.02;10.90;;;13.60;99.90;;;;;;5053890;28;20044;-67
2022/10/13 09:35:42;;;;;;;19.75;10.70;;;13.70;99.90;;;;;;5053736;28;20055;-67
2022/10/13 09:38:21;;;;;;;16.05;10.27;;;13.80;99.90;;;;;;5069345;28;20530;-68
2022/10/13 09:41:03;;;;;;;20.58;11.00;;;13.90;99.90;;;;;;5057176;28;20043;-69
2022/10/13 09:43:30;;;;;;;24.90;11.30;;;14.00;99.90;;;;;;5090377;28;20131;-68
2022/10/13 09:46:00;;;;;;;20.10;10.52;;;14.20;99.90;;;;;;5079564;28;20080;-68
2022/10/13 09:48:34;;;;;;;18.55;10.80;;;14.20;99.90;;;;;;5053038;28;20044;-68
2022/10/13 09:50:59;;;;;;;17.35;10.07;;;14.20;99.90;;;;;;5053777;28;20538;-69
2022/10/13 09:53:36;;;;;;;21.63;11.07;;;14.20;99.90;;;;;;5052914;28;20047;-70
2022/10/13 09:56:28;;;;;;;23.38;11.50;;;14.20;99.90;;;;;;5070099;28;20484;-68
2022/10/13 09:59:01;;;;;;;17.30;10.80;;;14.20;99.90;;;;;;5056212;28;20522;-68
2022/10/13 10:01:29;;;;;;;23.58;11.48;;;14.20;99.90;;;;;;5057220;28;20056;-68
2022/10/13 10:03:55;;;;;;;25.50;12.00;;;14.30;99.90;;;;;;5053745;28;20078;-68
2022/10/13 10:06:20;;;;;;;21.10;11.93;;;14.30;99.90;;;;;;5036973;28;20446;-68
2022/10/13 10:09:09;;;;;;;22.38;12.07;;;14.40;99.90;;;;;;5053569;28;20060;-68
2022/10/13 10:11:45;;;;;;;23.67;11.48;;;14.40;99.80;;;;;;5080060;28;20044;-69
2022/10/13 10:14:27;;;;;;;21.02;11.07;;;14.50;99.50;;;;;;5073487;28;20044;-68
2022/10/13 10:16:59;;;;;;;24.88;12.38;;;14.50;99.00;;;;;;5072683;28;20440;-69
2022/10/13 10:19:29;;;;;;;21.40;10.23;;;14.60;99.00;;;;;;5077272;28;20040;-69
2022/10/13 10:22:39;;;;;;;20.60;9.60;;;14.60;99.10;;;;;;5069538;28;20054;-68
2022/10/13 10:25:34;;;;;;;18.88;9.88;;;14.80;99.00;;;;;;4991742;28;20475;-68
2022/10/13 10:28:15;;;;;;;20.08;9.27;;;15.00;98.60;;;;;;5000435;28;20041;-68
2022/10/13 10:30:46;;;;;;;17.60;9.13;;;15.40;97.70;;;;;;5090169;28;20048;-68
2022/10/13 10:33:13;;;;;;;19.13;8.55;;;15.80;97.40;;;;;;5085172;28;20044;-67
2022/10/13 10:35:57;;;;;;;21.53;8.87;;;16.10;96.50;;;;;;5069406;28;20355;-68
2022/10/13 10:39:00;;;;;;;17.67;7.35;;;16.50;95.60;;;;;;5074787;28;20078;-68
2022/10/13 10:42:04;;;;;;;17.95;7.65;;;17.00;94.40;;;;;;5072992;28;20082;-68
2022/10/13 10:44:40;;;;;;;20.55;10.88;;;17.40;94.30;;;;;;5068161;28;20480;-68
2022/10/13 10:47:11;;;;;;;16.42;7.40;;;17.70;92.10;;;;;;5052749;28;20135;-68
2022/10/13 10:49:38;;;;;;;14.98;7.10;;;17.60;92.00;;;;;;5063195;28;20040;-68
2022/10/13 10:52:21;;;;;;;18.65;7.10;;;17.80;91.00;;;;;;5052785;28;20397;-68
2022/10/13 10:54:55;;;;;;;11.02;5.60;;;17.80;90.70;;;;;;5069307;28;20052;-68
2022/10/13 10:57:24;;;;;;;13.27;5.45;;;18.00;90.00;;;;;;5068548;28;20366;-69
2022/10/13 11:00:06;;;;;;;19.75;6.88;;;18.50;90.20;;;;;;5051964;28;20092;-69
2022/10/13 11:02:59;;;;;;;13.32;6.28;;;18.30;88.50;;;;;;5068552;28;20070;-68
2022/10/13 11:05:29;;;;;;;13.75;6.30;;;17.70;90.20;;;;;;5077674;28;20064;-68
2022/10/13 11:07:56;;;;;;;13.18;5.63;;;17.60;90.50;;;;;;5073119;28;20056;-68
2022/10/13 11:10:22;;;;;;;13.25;6.07;;;17.80;90.60;;;;;;5054748;28;20044;-68
2022/10/13 11:12:50;;;;;;;12.48;6.00;;;17.90;90.20;;;;;;5055457;28;20112;-68
2022/10/13 11:15:55;;;;;;;11.20;5.38;;;17.80;90.80;;;;;;5070890;28;20055;-68
2022/10/13 11:18:58;;;;;;;11.90;5.75;;;17.80;90.80;;;;;;5044302;28;20054;-68
2022/10/13 11:21:24;;;;;;;9.40;4.97;;;18.20;90.60;;;;;;5088500;28;20149;-68
2022/10/13 11:23:50;;;;;;;9.88;4.90;;;18.30;88.30;;;;;;5071575;28;20351;-67
2022/10/13 11:26:25;;;;;;;12.88;4.93;;;18.20;89.50;;;;;;5070987;28;20301;-68
2022/10/13 11:28:51;;;;;;;14.10;5.65;;;18.60;89.70;;;;;;5071830;28;20032;-69
2022/10/13 11:31:28;;;;;;;13.10;4.88;;;18.90;87.10;;;;;;5054642;28;20055;-70
2022/10/13 11:33:56;;;;;;;10.65;4.38;;;18.70;88.20;;;;;;5060932;28;20395;-69
2022/10/13 11:36:43;;;;;;;9.23;4.55;;;18.00;89.10;;;;;;5035155;28;20072;-69
2022/10/13 11:39:26;;;;;;;11.55;4.55;;;17.60;90.70;;;;;;5069238;28;20087;-69
2022/10/13 11:42:09;;;;;;;10.80;4.40;;;17.40;91.10;;;;;;5079043;28;20455;-70
2022/10/13 11:44:54;;;;;;;13.23;5.32;;;17.30;91.20;;;;;;5071960;28;20052;-68
2022/10/13 11:47:41;;;;;;;12.02;4.93;;;16.90;91.60;;;;;;5054623;28;20440;-68
2022/10/13 11:50:17;;;;;;;12.30;5.20;;;16.90;91.80;;;;;;5087307;28;20105;-68
2022/10/13 11:53:02;;;;;;;10.88;4.90;;;16.80;92.10;;;;;;5088263;28;20093;-69
2022/10/13 11:55:47;;;;;;;9.93;4.80;;;17.00;92.10;;;;;;5056769;28;20413;-68
2022/10/13 11:58:15;;;;;;;11.20;5.00;;;17.00;92.20;;;;;;5055132;28;20056;-69
2022/10/13 12:00:54;;;;;;;13.40;4.63;;;16.70;92.50;;;;;;5071371;28;20059;-69
2022/10/13 12:03:43;;;;;;;11.43;4.82;;;16.80;92.10;;;;;;5053400;28;20048;-69
2022/10/13 12:06:35;;;;;;;10.00;4.93;;;17.00;91.90;;;;;;5073772;28;20123;-68
2022/10/13 12:09:20;;;;;;;10.93;4.53;;;17.10;91.90;;;;;;5088263;28;20078;-70
2022/10/13 12:11:46;;;;;;;12.18;5.30;;;17.10;92.00;;;;;;5072792;28;20044;-68
2022/10/13 12:14:20;;;;;;;13.00;4.75;;;17.20;92.00;;;;;;5055008;28;20039;-68
2022/10/13 12:16:56;;;;;;;10.95;4.75;;;17.20;92.30;;;;;;5089444;28;20066;-68
2022/10/13 12:19:26;;;;;;;12.02;4.72;;;17.40;91.90;;;;;;5088461;28;20039;-69
2022/10/13 12:21:54;;;;;;;10.13;4.40;;;17.50;91.10;;;;;;5051001;28;20098;-69
2022/10/13 12:24:25;;;;;;;10.33;4.70;;;17.90;90.20;;;;;;5068010;28;20071;-69
2022/10/13 12:26:51;;;;;;;10.27;4.38;;;18.20;89.40;;;;;;5051104;28;20870;-68
2022/10/13 12:29:17;;;;;;;10.63;4.35;;;18.20;89.50;;;;;;5067447;28;20128;-68
2022/10/13 12:31:44;;;;;;;11.40;5.38;;;18.30;89.20;;;;;;5058801;28;20048;-68
2022/10/13 12:34:27;;;;;;;12.32;5.18;;;18.10;88.10;;;;;;5058691;28;20418;-68
2022/10/13 12:37:01;;;;;;;10.57;4.30;;;18.00;88.60;;;;;;5092397;28;20044;-68
2022/10/13 12:39:28;;;;;;;9.68;4.47;;;18.10;89.70;;;;;;5074594;28;20131;-69
2022/10/13 12:41:54;;;;;;;10.15;4.78;;;17.90;88.50;;;;;;5074844;28;20052;-69
2022/10/13 12:44:25;;;;;;;11.57;4.93;;;18.30;88.80;;;;;;5074716;28;20138;-68
2022/10/13 12:46:55;;;;;;;10.43;4.38;;;18.20;86.90;;;;;;5074127;28;20047;-68
2022/10/13 12:49:34;;;;;;;10.98;4.32;;;18.80;87.40;;;;;;5075362;28;20064;-68
2022/10/13 12:52:13;;;;;;;11.00;4.85;;;18.90;85.50;;;;;;5058161;28;20047;-69
2022/10/13 12:54:53;;;;;;;9.48;4.70;;;19.90;82.20;;;;;;5082261;28;20369;-69
2022/10/13 12:57:34;;;;;;;8.80;4.03;;;19.90;80.50;;;;;;5071623;28;20040;-69